createdAt,value
2019-05-02T00:01:28.083Z,36.07
2019-05-02T00:03:58.651Z,35.33
2019-05-02T00:06:28.440Z,35.77
2019-05-02T00:08:57.907Z,35.70
2019-05-02T00:11:29.088Z,37.50
2019-05-02T00:13:58.835Z,35.83
2019-05-02T00:16:29.769Z,36.33
2019-05-02T00:18:59.204Z,33.60
2019-05-02T00:21:32.928Z,37.03
2019-05-02T00:24:03.050Z,35.97
2019-05-02T00:26:31.233Z,37.13
2019-05-02T00:29:00.637Z,36.90
2019-05-02T00:31:30.063Z,38.93
2019-05-02T00:33:59.522Z,37.70
2019-05-02T00:36:28.898Z,36.90
2019-05-02T00:38:58.356Z,36.17
2019-05-02T00:41:27.681Z,36.47
2019-05-02T00:43:57.132Z,37.37
2019-05-02T00:46:30.271Z,36.23
2019-05-02T00:49:01.794Z,36.87
2019-05-02T00:51:30.645Z,36.77
2019-05-02T00:54:00.111Z,36.73
2019-05-02T00:56:29.584Z,36.17
2019-05-02T00:59:02.294Z,36.10
2019-05-02T01:02:05.329Z,36.10
2019-05-02T01:04:37.299Z,37.70
2019-05-02T01:07:07.508Z,39.23
2019-05-02T01:09:36.856Z,37.90
2019-05-02T01:12:08.466Z,37.27
2019-05-02T01:14:37.498Z,36.03
2019-05-02T01:17:06.936Z,37.83
2019-05-02T01:19:36.188Z,35.87
2019-05-02T01:22:10.642Z,37.00
2019-05-02T01:24:41.494Z,36.50
2019-05-02T01:27:17.562Z,36.37
2019-05-02T01:30:08.558Z,37.43
2019-05-02T01:32:47.582Z,39.40
2019-05-02T01:35:38.696Z,38.23
2019-05-02T01:38:15.916Z,35.83
2019-05-02T01:40:48.173Z,37.30
2019-05-02T01:43:36.316Z,39.20
2019-05-02T01:46:05.897Z,39.13
2019-05-02T01:48:35.349Z,39.03
2019-05-02T01:51:10.466Z,37.33
2019-05-02T01:53:36.120Z,35.37
2019-05-02T01:56:05.709Z,35.53
2019-05-02T01:58:35.222Z,36.07
2019-05-02T02:01:05.603Z,35.53
2019-05-02T02:03:35.292Z,36.93
2019-05-02T02:06:08.134Z,39.23
2019-05-02T02:08:35.959Z,37.37
2019-05-02T02:11:05.326Z,35.93
2019-05-02T02:13:36.515Z,38.23
2019-05-02T02:16:06.145Z,37.03
2019-05-02T02:18:39.435Z,36.63
2019-05-02T02:21:43.163Z,35.80
2019-05-02T02:24:34.944Z,36.83
2019-05-02T02:27:04.450Z,38.10
2019-05-02T02:29:33.873Z,36.20
2019-05-02T02:32:03.431Z,38.00
2019-05-02T02:34:32.726Z,37.67
2019-05-02T02:37:05.296Z,40.07
2019-05-02T02:39:33.260Z,38.33
2019-05-02T02:42:02.702Z,37.57
2019-05-02T02:44:59.993Z,37.97
2019-05-02T02:47:29.623Z,38.70
2019-05-02T02:50:02.286Z,38.33
2019-05-02T02:52:30.265Z,37.67
2019-05-02T02:54:59.711Z,35.43
2019-05-02T02:57:29.268Z,35.30
2019-05-02T03:00:06.715Z,36.43
2019-05-02T03:02:29.886Z,36.73
2019-05-02T03:04:59.360Z,39.67
2019-05-02T03:07:29.084Z,40.80
2019-05-02T03:09:59.725Z,44.23
2019-05-02T03:13:00.870Z,47.70
2019-05-02T03:15:32.554Z,41.00
2019-05-02T03:18:02.132Z,40.73
2019-05-02T03:20:39.880Z,40.93
2019-05-02T03:23:03.416Z,39.37
2019-05-02T03:25:49.824Z,40.80
2019-05-02T03:28:04.142Z,42.43
2019-05-02T03:30:37.406Z,44.20
2019-05-02T03:33:10.929Z,44.77
2019-05-02T03:35:43.079Z,46.97
2019-05-02T03:38:07.213Z,45.97
2019-05-02T03:40:38.924Z,44.77
2019-05-02T03:43:08.165Z,45.97
2019-05-02T03:45:40.063Z,45.07
2019-05-02T03:48:08.521Z,43.30
2019-05-02T03:50:38.448Z,45.70
2019-05-02T03:53:07.751Z,41.90
2019-05-02T03:55:37.212Z,43.53
2019-05-02T03:58:13.301Z,43.47
2019-05-02T04:00:37.746Z,44.50
2019-05-02T04:03:07.317Z,43.57
2019-05-02T04:05:40.521Z,41.87
2019-05-02T04:08:19.962Z,37.87
2019-05-02T04:11:23.288Z,38.53
2019-05-02T04:13:54.317Z,37.33
2019-05-02T04:16:25.945Z,35.30
2019-05-02T04:18:58.403Z,35.27
2019-05-02T04:21:27.984Z,38.43
2019-05-02T04:24:06.745Z,36.17
2019-05-02T04:26:29.274Z,38.20
2019-05-02T04:28:58.826Z,37.90
2019-05-02T04:31:31.389Z,35.97
2019-05-02T04:33:59.173Z,36.17
2019-05-02T04:36:28.511Z,38.03
2019-05-02T04:38:59.529Z,37.87
2019-05-02T04:41:31.723Z,38.73
2019-05-02T04:44:01.508Z,40.53
2019-05-02T04:46:31.485Z,40.83
2019-05-02T04:49:01.013Z,42.77
2019-05-02T04:51:31.911Z,41.27
2019-05-02T04:54:01.887Z,36.47
2019-05-02T04:56:31.794Z,35.87
2019-05-02T04:59:02.266Z,39.80
2019-05-02T05:01:41.933Z,40.13
2019-05-02T05:04:03.501Z,38.07
2019-05-02T05:06:32.850Z,38.07
2019-05-02T05:09:03.961Z,37.70
2019-05-02T05:11:33.269Z,34.67
2019-05-02T05:14:02.556Z,38.63
2019-05-02T05:16:31.907Z,37.63
2019-05-02T05:19:01.173Z,36.87
2019-05-02T05:21:30.557Z,36.20
2019-05-02T05:24:18.794Z,34.47
2019-05-02T05:26:51.280Z,36.03
2019-05-02T05:29:23.315Z,35.33
2019-05-02T05:31:55.069Z,35.33
2019-05-02T05:34:27.451Z,36.17
2019-05-02T05:36:53.854Z,39.93
2019-05-02T05:39:23.138Z,44.23
2019-05-02T05:41:52.555Z,49.30
2019-05-02T05:44:23.291Z,57.80
2019-05-02T05:46:53.053Z,56.53
2019-05-02T05:49:22.429Z,57.20
2019-05-02T05:51:54.380Z,56.27
2019-05-02T05:54:22.746Z,57.47
2019-05-02T05:56:52.446Z,57.70
2019-05-02T05:59:27.293Z,55.60
2019-05-02T06:01:53.328Z,57.67
2019-05-02T06:04:24.040Z,56.93
2019-05-02T06:06:58.796Z,55.07
2019-05-02T06:09:26.377Z,56.27
2019-05-02T06:11:56.680Z,55.47
2019-05-02T06:14:26.489Z,54.80
2019-05-02T06:16:55.849Z,53.50
2019-05-02T06:19:25.355Z,52.57
2019-05-02T06:21:54.748Z,58.20
2019-05-02T06:24:24.134Z,53.13
2019-05-02T06:26:53.623Z,52.93
2019-05-02T06:29:23.170Z,52.57
2019-05-02T06:31:52.574Z,52.90
2019-05-02T06:34:22.104Z,51.70
2019-05-02T06:36:51.565Z,52.03
2019-05-02T06:39:21.076Z,52.67
2019-05-02T06:41:51.983Z,50.50
2019-05-02T06:44:24.181Z,51.90
2019-05-02T06:46:52.702Z,51.60
2019-05-02T06:49:24.179Z,49.17
2019-05-02T06:51:56.192Z,62.67
2019-05-02T06:54:24.431Z,61.03
2019-05-02T06:56:53.874Z,51.07
2019-05-02T06:59:23.340Z,50.20
2019-05-02T07:01:57.362Z,50.07
2019-05-02T07:04:25.063Z,49.20
2019-05-02T07:06:59.453Z,48.47
2019-05-02T07:09:39.481Z,48.50
2019-05-02T07:12:01.245Z,48.37
2019-05-02T07:14:28.314Z,47.30
2019-05-02T07:17:11.163Z,48.73
2019-05-02T07:19:44.089Z,47.53
2019-05-02T07:22:13.403Z,47.27
2019-05-02T07:24:42.770Z,47.20
2019-05-02T07:27:12.483Z,46.03
2019-05-02T07:29:41.773Z,45.77
2019-05-02T07:32:11.453Z,45.20
2019-05-02T07:34:44.328Z,51.53
2019-05-02T07:37:12.679Z,44.63
2019-05-02T07:39:43.529Z,43.73
2019-05-02T07:42:12.899Z,42.40
2019-05-02T07:44:42.343Z,44.07
2019-05-02T07:47:11.687Z,42.97
2019-05-02T07:49:41.091Z,44.33
2019-05-02T07:52:10.592Z,43.43
2019-05-02T07:54:39.982Z,46.60
2019-05-02T07:57:09.397Z,45.40
2019-05-02T07:59:38.760Z,43.77
2019-05-02T08:02:08.372Z,43.27
2019-05-02T08:04:37.701Z,41.27
2019-05-02T08:07:07.451Z,44.53
2019-05-02T08:09:39.256Z,46.97
2019-05-02T08:12:08.305Z,45.93
2019-05-02T08:14:37.703Z,45.20
2019-05-02T08:17:16.320Z,46.00
2019-05-02T08:19:41.785Z,43.43
2019-05-02T08:22:13.825Z,44.60
2019-05-02T08:24:40.511Z,45.17
2019-05-02T08:27:34.760Z,44.53
2019-05-02T08:30:04.238Z,45.23
2019-05-02T08:32:33.795Z,43.93
2019-05-02T08:35:03.059Z,44.20
2019-05-02T08:37:35.307Z,44.77
2019-05-02T08:40:05.391Z,44.97
2019-05-02T08:42:34.824Z,43.87
2019-05-02T08:45:04.666Z,45.97
2019-05-02T08:47:34.114Z,45.03
2019-05-02T08:50:03.521Z,45.77
2019-05-02T08:52:36.880Z,44.90
2019-05-02T08:55:09.004Z,44.17
2019-05-02T08:57:36.310Z,44.87
2019-05-02T09:00:07.071Z,47.00
2019-05-02T09:02:41.408Z,44.27
2019-05-02T09:05:08.203Z,44.40
2019-05-02T09:07:40.050Z,43.60
2019-05-02T09:10:09.077Z,45.00
2019-05-02T09:12:42.236Z,45.37
2019-05-02T09:15:11.838Z,44.63
2019-05-02T09:17:46.115Z,41.57
2019-05-02T09:20:17.848Z,41.92
2019-05-02T09:22:46.499Z,43.77
2019-05-02T09:25:15.271Z,43.63
2019-05-02T09:27:44.713Z,45.90
2019-05-02T09:30:17.138Z,43.90
2019-05-02T09:32:45.506Z,43.27
2019-05-02T09:35:14.909Z,40.73
2019-05-02T09:37:44.229Z,40.63
2019-05-02T09:40:16.739Z,41.83
2019-05-02T09:42:47.496Z,40.97
2019-05-02T09:45:27.856Z,39.20
2019-05-02T09:48:04.006Z,38.23
2019-05-02T09:50:31.197Z,39.43
2019-05-02T09:52:56.786Z,39.07
2019-05-02T09:55:26.255Z,37.93
2019-05-02T09:58:19.483Z,37.23
2019-05-02T10:01:05.681Z,39.13
2019-05-02T10:03:35.135Z,36.57
2019-05-02T10:06:08.302Z,35.07
2019-05-02T10:08:38.345Z,36.20
2019-05-02T10:11:07.032Z,39.47
2019-05-02T10:13:36.376Z,38.40
2019-05-02T10:16:05.771Z,37.63
2019-05-02T10:18:35.287Z,37.23
2019-05-02T10:21:07.829Z,36.60
2019-05-02T10:23:36.325Z,35.40
2019-05-02T10:26:05.848Z,37.60
2019-05-02T10:28:35.182Z,38.23
2019-05-02T10:31:04.729Z,37.43
2019-05-02T10:33:37.562Z,38.47
2019-05-02T10:36:05.435Z,38.67
2019-05-02T10:38:34.802Z,37.77
2019-05-02T10:41:04.921Z,39.27
2019-05-02T10:43:34.159Z,37.33
2019-05-02T10:46:09.903Z,36.20
2019-05-02T10:48:44.425Z,40.23
2019-05-02T10:51:31.642Z,70.90
2019-05-02T10:54:02.272Z,36.53
2019-05-02T10:56:32.434Z,36.70
2019-05-02T10:59:02.326Z,37.48
2019-05-02T11:01:37.315Z,37.40
2019-05-02T11:04:08.704Z,34.30
2019-05-02T11:06:42.702Z,33.67
2019-05-02T11:09:12.102Z,33.58
2019-05-02T11:11:42.487Z,34.70
2019-05-02T11:14:33.741Z,34.03
2019-05-02T11:17:27.837Z,35.13
2019-05-02T11:20:02.836Z,47.50
2019-05-02T11:22:32.334Z,33.67
2019-05-02T11:25:02.149Z,31.80
2019-05-02T11:27:32.899Z,30.85
2019-05-02T11:30:02.803Z,31.43
2019-05-02T11:32:32.754Z,30.52
2019-05-02T11:35:02.969Z,30.90
2019-05-02T11:37:32.934Z,32.43
2019-05-02T11:40:06.151Z,31.90
2019-05-02T11:42:33.342Z,31.50
2019-05-02T11:45:02.859Z,31.17
2019-05-02T11:47:33.716Z,31.27
2019-05-02T11:50:02.972Z,30.83
2019-05-02T11:52:37.178Z,30.13
2019-05-02T11:55:03.368Z,29.77
2019-05-02T11:57:33.178Z,30.73
2019-05-02T12:00:05.093Z,30.57
2019-05-02T12:02:58.098Z,30.30
2019-05-02T12:05:35.403Z,29.37
2019-05-02T12:08:07.754Z,32.53
2019-05-02T12:10:36.627Z,34.23
2019-05-02T12:13:06.603Z,29.87
2019-05-02T12:15:35.364Z,31.00
2019-05-02T12:18:05.225Z,30.80
2019-05-02T12:20:36.724Z,30.23
2019-05-02T12:23:09.017Z,29.57
2019-05-02T12:25:37.113Z,30.50
2019-05-02T12:28:07.027Z,29.07
2019-05-02T12:30:37.855Z,29.63
2019-05-02T12:33:08.104Z,29.33
2019-05-02T12:35:37.622Z,29.57
2019-05-02T12:38:07.024Z,28.97
2019-05-02T12:40:36.513Z,30.43
2019-05-02T12:43:05.991Z,30.53
2019-05-02T12:45:35.374Z,28.90
2019-05-02T12:48:04.815Z,28.33
2019-05-02T12:50:34.147Z,27.00
2019-05-02T12:53:03.491Z,28.53
2019-05-02T12:55:32.779Z,28.93
2019-05-02T12:58:03.136Z,29.97
2019-05-02T13:00:32.741Z,27.37
2019-05-02T13:03:18.221Z,27.50
2019-05-02T13:05:47.725Z,28.83
2019-05-02T13:08:17.060Z,27.07
2019-05-02T13:11:17.414Z,26.23
2019-05-02T13:13:46.910Z,25.57
2019-05-02T13:16:16.345Z,26.47
2019-05-02T13:18:45.701Z,25.53
2019-05-02T13:21:20.750Z,26.37
2019-05-02T13:23:54.632Z,26.50
2019-05-02T13:26:27.094Z,26.67
2019-05-02T13:28:54.977Z,24.87
2019-05-02T13:31:49.078Z,25.60
2019-05-02T13:34:31.942Z,24.43
2019-05-02T13:37:02.912Z,25.47
2019-05-02T13:39:39.342Z,24.83
2019-05-02T13:42:09.630Z,24.90
2019-05-02T13:44:45.485Z,22.85
2019-05-02T13:47:15.412Z,20.12
2019-05-02T13:49:54.107Z,20.12
2019-05-02T13:52:15.927Z,20.62
2019-05-02T13:54:45.473Z,20.60
2019-05-02T13:57:14.855Z,19.62
2019-05-02T13:59:44.212Z,19.20
2019-05-02T14:02:37.327Z,19.37
2019-05-02T14:05:08.693Z,19.48
2019-05-02T14:07:38.789Z,20.43
2019-05-02T14:10:18.788Z,20.32
2019-05-02T14:12:52.828Z,20.43
2019-05-02T14:15:24.556Z,20.37
2019-05-02T14:17:53.997Z,22.45
2019-05-02T14:20:23.499Z,18.40
2019-05-02T14:22:52.921Z,17.25
2019-05-02T14:25:22.523Z,18.48
2019-05-02T14:27:55.453Z,16.75
2019-05-02T14:30:36.219Z,16.60
2019-05-02T14:32:58.256Z,19.07
2019-05-02T14:35:30.016Z,21.77
2019-05-02T14:38:09.305Z,20.27
2019-05-02T14:40:45.345Z,20.20
2019-05-02T14:43:17.723Z,20.63
2019-05-02T14:45:51.003Z,26.80
2019-05-02T14:48:23.616Z,25.80
2019-05-02T14:50:52.621Z,21.10
2019-05-02T14:53:25.325Z,21.43
2019-05-02T14:55:57.589Z,21.60
2019-05-02T14:58:25.681Z,21.70
2019-05-02T15:00:56.657Z,20.33
2019-05-02T15:03:28.453Z,20.67
2019-05-02T15:05:59.102Z,20.40
2019-05-02T15:08:28.270Z,21.03
2019-05-02T15:10:57.727Z,20.20
2019-05-02T15:13:27.194Z,21.10
2019-05-02T15:15:56.615Z,21.73
2019-05-02T15:18:25.902Z,36.17
2019-05-02T15:20:55.247Z,29.47
2019-05-02T15:23:24.770Z,23.40
2019-05-02T15:25:56.060Z,22.90
2019-05-02T15:28:25.347Z,23.63
2019-05-02T15:31:05.721Z,24.07
2019-05-02T15:33:38.919Z,24.27
2019-05-02T15:36:08.894Z,22.77
2019-05-02T15:38:45.560Z,23.10
2019-05-02T15:41:12.617Z,22.07
2019-05-02T15:43:44.276Z,21.97
2019-05-02T15:46:17.319Z,20.47
2019-05-02T15:48:42.799Z,20.80
2019-05-02T15:51:12.418Z,278.83
2019-05-02T15:54:04.477Z,21.97
2019-05-02T15:56:24.372Z,18.80
2019-05-02T15:58:58.081Z,18.30
2019-05-02T16:01:36.669Z,18.17
2019-05-02T16:04:09.146Z,17.77
2019-05-02T16:06:38.583Z,17.53
2019-05-02T16:09:08.488Z,15.03
2019-05-02T16:11:37.995Z,14.10
2019-05-02T16:14:07.384Z,13.17
2019-05-02T16:16:41.133Z,14.03
2019-05-02T16:19:07.840Z,12.80
2019-05-02T16:21:45.612Z,12.27
2019-05-02T16:24:22.974Z,11.83
2019-05-02T16:26:56.609Z,12.17
2019-05-02T16:29:28.313Z,10.60
2019-05-02T16:32:14.293Z,10.40
2019-05-02T16:34:54.841Z,11.43
2019-05-02T16:37:24.537Z,11.87
2019-05-02T16:39:54.128Z,11.73
2019-05-02T16:42:23.645Z,12.43
2019-05-02T16:44:54.840Z,12.17
2019-05-02T16:47:24.081Z,12.57
2019-05-02T16:49:56.396Z,12.40
2019-05-02T16:52:24.562Z,12.27
2019-05-02T16:54:54.053Z,13.93
2019-05-02T16:57:23.848Z,13.80
2019-05-02T17:00:01.002Z,14.30
2019-05-02T17:02:24.700Z,14.67
2019-05-02T17:04:54.584Z,13.77
2019-05-02T17:07:52.970Z,14.00
2019-05-02T17:10:29.220Z,13.57
2019-05-02T17:13:00.304Z,12.23
2019-05-02T17:15:35.450Z,12.87
2019-05-02T17:18:12.623Z,12.87
2019-05-02T17:20:37.174Z,12.53
2019-05-02T17:23:07.755Z,12.33
2019-05-02T17:25:37.192Z,11.73
2019-05-02T17:28:10.263Z,11.37
2019-05-02T17:30:38.828Z,11.93
2019-05-02T17:33:14.388Z,10.20
2019-05-02T17:35:41.668Z,34.00
2019-05-02T17:38:12.055Z,33.47
2019-05-02T17:40:42.236Z,29.57
2019-05-02T17:43:11.948Z,18.10
2019-05-02T17:45:41.389Z,12.57
2019-05-02T17:48:16.606Z,13.43
2019-05-02T17:51:06.655Z,13.90
2019-05-02T17:53:41.343Z,13.47
2019-05-02T17:56:07.160Z,13.37
2019-05-02T17:58:36.537Z,12.30
2019-05-02T18:01:10.187Z,11.90
2019-05-02T18:03:39.534Z,11.77
2019-05-02T18:06:13.213Z,10.70
2019-05-02T18:08:41.727Z,11.53
2019-05-02T18:11:12.700Z,21.13
2019-05-02T18:13:42.402Z,9.87
2019-05-02T18:16:15.153Z,9.33
2019-05-02T18:18:46.639Z,9.30
2019-05-02T18:21:17.271Z,9.33
2019-05-02T18:23:45.183Z,9.00
2019-05-02T18:26:14.592Z,8.50
2019-05-02T18:28:48.936Z,9.23
2019-05-02T18:31:15.315Z,9.40
2019-05-02T18:33:44.745Z,8.50
2019-05-02T18:36:17.293Z,8.40
2019-05-02T18:38:45.310Z,9.63
2019-05-02T18:41:16.270Z,9.37
2019-05-02T18:43:46.362Z,9.20
2019-05-02T18:46:16.015Z,9.20
2019-05-02T18:48:48.945Z,10.50
2019-05-02T18:51:19.001Z,10.17
2019-05-02T18:53:48.502Z,9.70
2019-05-02T18:56:18.132Z,10.00
2019-05-02T18:58:47.937Z,8.17
2019-05-02T19:01:19.436Z,8.50
2019-05-02T19:03:52.487Z,7.03
2019-05-02T19:06:21.887Z,50.47
2019-05-02T19:08:53.057Z,24.47
2019-05-02T19:11:26.787Z,6.13
2019-05-02T19:13:54.095Z,6.37
2019-05-02T19:16:27.245Z,6.50
2019-05-02T19:18:57.437Z,5.53
2019-05-02T19:21:31.256Z,5.80
2019-05-02T19:23:57.817Z,5.67
2019-05-02T19:26:29.989Z,5.00
2019-05-02T19:29:08.316Z,5.23
2019-05-02T19:31:46.144Z,5.40
2019-05-02T19:34:16.894Z,5.83
2019-05-02T19:36:46.503Z,6.07
2019-05-02T19:39:17.240Z,6.43
2019-05-02T19:41:46.612Z,5.43
2019-05-02T19:44:21.365Z,6.07
2019-05-02T19:46:47.094Z,5.77
2019-05-02T19:49:16.491Z,5.77
2019-05-02T19:51:50.557Z,5.90
2019-05-02T19:54:17.977Z,6.03
2019-05-02T19:56:47.764Z,5.53
2019-05-02T19:59:24.626Z,5.83
2019-05-02T20:01:49.566Z,5.77
2019-05-02T20:04:19.518Z,5.73
2019-05-02T20:06:49.705Z,5.57
2019-05-02T20:09:19.473Z,5.80
2019-05-02T20:11:48.891Z,5.83
2019-05-02T20:14:18.542Z,5.60
2019-05-02T20:16:52.810Z,6.37
2019-05-02T20:19:26.806Z,6.53
2019-05-02T20:22:06.606Z,6.13
2019-05-02T20:25:08.559Z,7.00
2019-05-02T20:27:37.980Z,7.50
2019-05-02T20:30:12.011Z,8.43
2019-05-02T20:32:42.852Z,8.60
2019-05-02T20:35:13.092Z,8.87
2019-05-02T20:37:42.510Z,8.50
2019-05-02T20:40:27.510Z,15.30
2019-05-02T20:42:56.855Z,8.53
2019-05-02T20:45:26.627Z,9.33
2019-05-02T20:47:56.464Z,8.40
2019-05-02T20:50:26.819Z,9.03
2019-05-02T20:52:56.479Z,9.47
2019-05-02T20:55:27.230Z,9.27
2019-05-02T20:57:57.182Z,10.10
2019-05-02T21:00:29.406Z,10.50
2019-05-02T21:02:59.119Z,11.37
2019-05-02T21:05:35.307Z,11.40
2019-05-02T21:08:42.571Z,11.30
2019-05-02T21:11:12.538Z,11.40
2019-05-02T21:13:42.151Z,11.77
2019-05-02T21:16:12.534Z,12.20
2019-05-02T21:18:42.631Z,12.73
2019-05-02T21:21:12.688Z,13.33
2019-05-02T21:23:47.318Z,13.77
2019-05-02T21:26:13.933Z,13.83
2019-05-02T21:28:46.096Z,14.93
2019-05-02T21:31:14.869Z,14.90
2019-05-02T21:33:44.458Z,14.13
2019-05-02T21:36:13.865Z,15.37
2019-05-02T21:38:43.246Z,15.00
2019-05-02T21:41:12.811Z,15.53
2019-05-02T21:43:42.694Z,14.90
2019-05-02T21:46:12.702Z,16.73
2019-05-02T21:48:42.651Z,17.57
2019-05-02T21:51:38.609Z,15.93
2019-05-02T21:54:29.958Z,16.53
2019-05-02T21:57:08.477Z,15.57
2019-05-02T21:59:38.379Z,15.10
2019-05-02T22:02:11.895Z,15.50
2019-05-02T22:04:42.366Z,14.43
2019-05-02T22:07:12.194Z,15.53
2019-05-02T22:09:41.759Z,32.90
2019-05-02T22:12:12.008Z,55.67
2019-05-02T22:14:42.148Z,13.93
2019-05-02T22:17:12.720Z,16.00
2019-05-02T22:19:42.094Z,14.90
2019-05-02T22:22:12.226Z,15.13
2019-05-02T22:24:42.132Z,14.80
2019-05-02T22:27:12.369Z,14.47
2019-05-02T22:29:43.035Z,14.53
2019-05-02T22:32:12.433Z,14.80
2019-05-02T22:34:42.607Z,15.40
2019-05-02T22:37:14.158Z,14.03
2019-05-02T22:39:48.972Z,14.07
2019-05-02T22:42:18.158Z,13.77
2019-05-02T22:44:47.325Z,15.07
2019-05-02T22:47:16.534Z,15.03
2019-05-02T22:49:45.724Z,15.17
2019-05-02T22:52:14.877Z,16.33
2019-05-02T22:54:44.037Z,14.27
2019-05-02T22:57:14.260Z,16.07
2019-05-02T22:59:43.666Z,15.10
2019-05-02T23:02:13.124Z,15.40
2019-05-02T23:04:42.309Z,16.33
2019-05-02T23:07:12.670Z,15.47
2019-05-02T23:09:43.666Z,16.37
2019-05-02T23:12:13.243Z,17.03
2019-05-02T23:14:42.451Z,15.37
2019-05-02T23:17:12.725Z,14.90
2019-05-02T23:19:42.435Z,16.30
2019-05-02T23:22:12.724Z,15.70
2019-05-02T23:24:56.134Z,16.10
2019-05-02T23:27:38.168Z,15.93
2019-05-02T23:30:11.549Z,17.90
2019-05-02T23:32:42.373Z,17.23
2019-05-02T23:35:11.819Z,15.60
2019-05-02T23:37:42.263Z,15.53
2019-05-02T23:40:12.474Z,15.43
2019-05-02T23:42:41.859Z,14.00
2019-05-02T23:45:12.100Z,15.73
2019-05-02T23:47:42.193Z,14.37
2019-05-02T23:50:12.113Z,13.77
2019-05-02T23:52:41.560Z,12.70
2019-05-02T23:55:12.188Z,10.10
2019-05-02T23:57:42.142Z,8.90
